createdAt,value
2022-11-05T00:01:49.826Z,99267.65
2022-11-05T00:04:37.000Z,99266.56
2022-11-05T00:07:35.443Z,99270.67
2022-11-05T00:10:26.110Z,99280.16
2022-11-05T00:13:15.070Z,99286.52
2022-11-05T00:16:01.563Z,99292.23
2022-11-05T00:18:30.095Z,99299.64
2022-11-05T00:21:00.384Z,99298.17
2022-11-05T00:23:46.979Z,99298.23
2022-11-05T00:26:15.166Z,99309.04
2022-11-05T00:28:44.393Z,99314.52
2022-11-05T00:31:13.876Z,99323.27
2022-11-05T00:33:44.433Z,99320.23
2022-11-05T00:36:12.603Z,99318.94
2022-11-05T00:38:40.548Z,99317.55
2022-11-05T00:41:08.449Z,99320.35
2022-11-05T00:43:55.099Z,99327.91
2022-11-05T00:46:23.369Z,99328.66
2022-11-05T00:49:10.106Z,99326.86
2022-11-05T00:51:37.982Z,99329.03
2022-11-05T00:54:05.970Z,99332.47
2022-11-05T00:56:34.219Z,99332.95
2022-11-05T00:59:02.038Z,99340.06
2022-11-05T01:01:30.289Z,99342.65
2022-11-05T01:03:58.376Z,99347.66
2022-11-05T01:06:26.848Z,99354.02
2022-11-05T01:08:55.879Z,99356.20
2022-11-05T01:11:33.345Z,99363.88
2022-11-05T01:14:05.464Z,99364.91
2022-11-05T01:16:33.443Z,99367.39
2022-11-05T01:19:02.733Z,99375.99
2022-11-05T01:21:32.245Z,99384.00
2022-11-05T01:24:00.771Z,99386.91
2022-11-05T01:26:30.243Z,99389.91
2022-11-05T01:29:01.965Z,99388.48
2022-11-05T01:31:30.381Z,99389.05
2022-11-05T01:34:00.398Z,99391.22
2022-11-05T01:36:28.367Z,99393.06
2022-11-05T01:38:56.174Z,99399.13
2022-11-05T01:41:24.061Z,99406.79
2022-11-05T01:43:56.673Z,99410.23
2022-11-05T01:46:29.294Z,99415.37
2022-11-05T01:49:03.989Z,99415.36
2022-11-05T01:51:32.083Z,99422.23
2022-11-05T01:54:03.784Z,99421.90
2022-11-05T01:56:44.089Z,99417.58
2022-11-05T01:59:14.983Z,99415.93
2022-11-05T02:01:43.340Z,99415.97
2022-11-05T02:04:16.203Z,99414.95
2022-11-05T02:06:47.676Z,99412.96
2022-11-05T02:09:20.838Z,99411.01
2022-11-05T02:11:50.568Z,99411.45
2022-11-05T02:14:18.792Z,99411.60
2022-11-05T02:17:25.456Z,99419.08
2022-11-05T02:20:10.407Z,99419.09
2022-11-05T02:22:47.433Z,99424.75
2022-11-05T02:25:15.332Z,99428.56
2022-11-05T02:27:59.045Z,99431.45
2022-11-05T02:30:53.184Z,99435.43
2022-11-05T02:33:47.385Z,99438.14
2022-11-05T02:36:43.916Z,99450.70
2022-11-05T02:39:22.973Z,99464.30
2022-11-05T02:42:12.257Z,99473.25
2022-11-05T02:45:05.276Z,99467.40
2022-11-05T02:47:42.863Z,99468.48
2022-11-05T02:50:24.790Z,99469.58
2022-11-05T02:53:01.751Z,99475.91
2022-11-05T02:55:51.483Z,99486.29
2022-11-05T02:58:19.769Z,99492.37
2022-11-05T03:00:54.749Z,99492.36
2022-11-05T03:03:31.562Z,99500.29
2022-11-05T03:06:08.680Z,99503.58
2022-11-05T03:09:01.412Z,99507.03
2022-11-05T03:11:33.164Z,99515.92
2022-11-05T03:14:04.244Z,99525.55
2022-11-05T03:17:04.883Z,99538.73
2022-11-05T03:19:40.466Z,99548.67
2022-11-05T03:22:11.435Z,99557.00
2022-11-05T03:24:42.620Z,99553.55
2022-11-05T03:27:15.748Z,99551.58
2022-11-05T03:29:47.915Z,99551.61
2022-11-05T03:32:15.875Z,99555.03
2022-11-05T03:34:48.085Z,99559.04
2022-11-05T03:37:17.229Z,99570.30
2022-11-05T03:39:49.039Z,99573.82
2022-11-05T03:42:18.630Z,99578.48
2022-11-05T03:44:50.529Z,99581.48
2022-11-05T03:47:22.729Z,99586.62
2022-11-05T03:49:50.474Z,99595.86
2022-11-05T03:52:20.123Z,99599.02
2022-11-05T03:54:47.952Z,99610.80
2022-11-05T03:57:22.100Z,99620.27
2022-11-05T03:59:53.167Z,99631.41
2022-11-05T04:02:23.952Z,99630.20
2022-11-05T04:04:52.868Z,99630.19
2022-11-05T04:07:56.024Z,99636.27
2022-11-05T04:10:42.465Z,99640.39
2022-11-05T04:13:26.177Z,99647.63
2022-11-05T04:16:14.362Z,99659.55
2022-11-05T04:18:42.852Z,99667.02
2022-11-05T04:21:29.577Z,99671.97
2022-11-05T04:24:10.010Z,99673.81
2022-11-05T04:26:43.746Z,99671.17
2022-11-05T04:29:30.382Z,99668.38
2022-11-05T04:31:58.213Z,99664.28
2022-11-05T04:34:26.087Z,99663.50
2022-11-05T04:36:54.098Z,99668.70
2022-11-05T04:39:21.999Z,99676.48
2022-11-05T04:41:49.899Z,99676.12
2022-11-05T04:44:17.810Z,99680.86
2022-11-05T04:46:45.699Z,99683.27
2022-11-05T04:49:13.516Z,99684.59
2022-11-05T04:51:41.389Z,99684.91
2022-11-05T04:54:09.182Z,99687.65
2022-11-05T04:56:37.016Z,99685.05
2022-11-05T04:59:04.824Z,99688.58
2022-11-05T05:01:32.837Z,99690.45
2022-11-05T05:04:01.441Z,99692.46
2022-11-05T05:06:30.099Z,99698.59
2022-11-05T05:08:58.576Z,99699.16
2022-11-05T05:11:26.535Z,99707.09
2022-11-05T05:13:55.581Z,99708.02
2022-11-05T05:16:27.544Z,99715.73
2022-11-05T05:18:55.551Z,99727.44
2022-11-05T05:21:39.181Z,99727.23
2022-11-05T05:24:08.797Z,99733.92
2022-11-05T05:26:41.833Z,99737.42
2022-11-05T05:29:10.668Z,99738.55
2022-11-05T05:31:38.764Z,99742.54
2022-11-05T05:34:08.436Z,99740.91
2022-11-05T05:36:37.503Z,99744.48
2022-11-05T05:39:13.298Z,99738.83
2022-11-05T05:41:41.217Z,99736.68
2022-11-05T05:44:09.051Z,99736.06
2022-11-05T05:46:37.547Z,99736.45
2022-11-05T05:49:12.077Z,99738.10
2022-11-05T05:51:40.577Z,99740.63
2022-11-05T05:54:08.451Z,99748.80
2022-11-05T05:56:37.368Z,99748.08
2022-11-05T05:59:06.025Z,99752.95
2022-11-05T06:01:34.201Z,99756.21
2022-11-05T06:04:03.435Z,99764.02
2022-11-05T06:06:31.304Z,99771.30
2022-11-05T06:08:59.327Z,99771.61
2022-11-05T06:11:27.624Z,99778.31
2022-11-05T06:13:55.491Z,99787.17
2022-11-05T06:16:23.896Z,99791.53
2022-11-05T06:18:53.225Z,99795.80
2022-11-05T06:21:21.214Z,99798.23
2022-11-05T06:23:49.977Z,99801.63
2022-11-05T06:26:19.207Z,99810.30
2022-11-05T06:28:47.286Z,99822.46
2022-11-05T06:34:19.625Z,99833.33
2022-11-05T06:37:04.309Z,99837.17
2022-11-05T06:39:41.495Z,99838.14
2022-11-05T06:43:02.571Z,99843.40
2022-11-05T06:46:29.916Z,99847.86
2022-11-05T06:49:01.139Z,99859.20
2022-11-05T06:51:33.920Z,99869.80
2022-11-05T06:54:02.128Z,99876.45
2022-11-05T06:56:35.747Z,99872.73
2022-11-05T06:59:30.799Z,99871.66
2022-11-05T07:02:12.392Z,99871.79
2022-11-05T07:04:41.081Z,99882.07
2022-11-05T07:07:27.237Z,99884.59
2022-11-05T07:09:57.771Z,99881.30
2022-11-05T07:13:35.694Z,99885.83
2022-11-05T07:16:37.631Z,99889.39
2022-11-05T07:19:23.916Z,99894.13
2022-11-05T07:25:10.866Z,99910.54
2022-11-05T07:27:42.234Z,99906.92
2022-11-05T07:31:50.293Z,99908.42
2022-11-05T07:34:18.338Z,99910.41
2022-11-05T07:40:37.747Z,99922.98
2022-11-05T07:43:05.627Z,99930.05
2022-11-05T07:45:37.911Z,99942.54
2022-11-05T07:48:17.052Z,99951.50
2022-11-05T07:51:18.734Z,99959.61
2022-11-05T07:54:36.125Z,99965.92
2022-11-05T07:56:48.302Z,99959.75
2022-11-05T08:02:51.818Z,99962.09
2022-11-05T08:05:29.067Z,99970.14
2022-11-05T08:08:22.232Z,99977.21
2022-11-05T08:11:01.945Z,99980.30
2022-11-05T08:17:44.675Z,99997.54
2022-11-05T08:20:15.541Z,100005.88
2022-11-05T08:22:45.810Z,100007.96
2022-11-05T08:25:15.338Z,100013.35
2022-11-05T08:27:43.297Z,100006.48
2022-11-05T08:30:11.871Z,100003.73
2022-11-05T08:32:45.122Z,100002.72
2022-11-05T08:35:13.514Z,100004.22
2022-11-05T08:37:41.685Z,100009.73
2022-11-05T08:40:12.811Z,100010.59
2022-11-05T08:42:44.284Z,100010.45
2022-11-05T08:45:16.057Z,100018.23
2022-11-05T08:47:47.236Z,100023.66
2022-11-05T08:50:15.346Z,100032.40
2022-11-05T08:52:44.695Z,100041.27
2022-11-05T08:55:18.862Z,100052.17
2022-11-05T08:57:55.305Z,100053.78
2022-11-05T09:00:24.099Z,100055.70
2022-11-05T09:02:57.850Z,100061.23
2022-11-05T09:05:26.076Z,100064.77
2022-11-05T09:08:03.554Z,100066.94
2022-11-05T09:10:35.153Z,100069.58
2022-11-05T09:13:04.498Z,100069.02
2022-11-05T09:15:33.781Z,100074.73
2022-11-05T09:18:03.411Z,100082.45
2022-11-05T09:20:32.762Z,100088.81
2022-11-05T09:23:01.137Z,100090.66
2022-11-05T09:25:29.677Z,100086.48
2022-11-05T09:28:16.557Z,100089.14
2022-11-05T09:30:47.800Z,100093.07
2022-11-05T09:33:18.134Z,100093.09
2022-11-05T09:35:46.156Z,100097.06
2022-11-05T09:38:14.400Z,100103.63
2022-11-05T09:40:59.356Z,100105.83
2022-11-05T09:43:53.853Z,100108.90
2022-11-05T09:46:28.498Z,100107.39
2022-11-05T09:49:05.767Z,100107.95
2022-11-05T09:51:36.017Z,100107.19
2022-11-05T09:54:04.476Z,100113.75
2022-11-05T09:56:37.043Z,100110.63
2022-11-05T09:59:14.571Z,100110.73
2022-11-05T10:01:44.180Z,100112.76
2022-11-05T10:04:23.340Z,100118.02
2022-11-05T10:06:57.428Z,100118.36
2022-11-05T10:09:29.334Z,100113.59
2022-11-05T10:12:13.089Z,100120.65
2022-11-05T10:14:48.891Z,100123.56
2022-11-05T10:17:24.985Z,100126.92
2022-11-05T10:20:30.854Z,100131.30
2022-11-05T10:23:10.385Z,100134.37
2022-11-05T10:25:42.338Z,100134.63
2022-11-05T10:28:19.347Z,100136.89
2022-11-05T10:30:50.881Z,100142.77
2022-11-05T10:33:42.935Z,100145.86
2022-11-05T10:36:15.791Z,100141.68
2022-11-05T10:38:44.280Z,100141.92
2022-11-05T10:41:28.087Z,100142.30
2022-11-05T10:44:19.577Z,100142.38
2022-11-05T10:47:24.642Z,100141.38
2022-11-05T10:50:03.389Z,100148.08
2022-11-05T10:53:00.360Z,100146.45
2022-11-05T10:55:34.165Z,100146.23
2022-11-05T10:58:30.605Z,100148.62
2022-11-05T11:00:58.489Z,100147.66
2022-11-05T11:03:48.351Z,100148.52
2022-11-05T11:06:41.769Z,100148.20
2022-11-05T11:09:20.113Z,100155.00
2022-11-05T11:11:56.675Z,100150.08
2022-11-05T11:14:24.559Z,100152.93
2022-11-05T11:16:57.559Z,100153.02
2022-11-05T11:19:53.821Z,100157.75
2022-11-05T11:22:22.212Z,100159.07
2022-11-05T11:24:54.927Z,100164.80
2022-11-05T11:27:30.249Z,100166.39
2022-11-05T11:30:02.994Z,100177.20
2022-11-05T11:32:39.751Z,100177.66
2022-11-05T11:35:18.171Z,100176.63
2022-11-05T11:37:46.789Z,100174.13
2022-11-05T11:40:37.500Z,100174.60
2022-11-05T11:43:28.445Z,100174.28
2022-11-05T11:46:02.179Z,100177.02
2022-11-05T11:48:35.997Z,100178.48
2022-11-05T11:51:35.205Z,100181.97
2022-11-05T11:54:04.961Z,100180.52
2022-11-05T11:56:45.307Z,100184.17
2022-11-05T11:59:46.715Z,100190.92
2022-11-05T12:02:34.956Z,100193.52
2022-11-05T12:05:03.393Z,100195.58
2022-11-05T12:07:41.235Z,100202.41
2022-11-05T12:10:24.330Z,100202.02
2022-11-05T12:13:17.155Z,100202.01
2022-11-05T12:15:58.339Z,100198.25
2022-11-05T12:18:40.764Z,100195.80
2022-11-05T12:21:52.523Z,100201.40
2022-11-05T12:24:36.972Z,100202.26
2022-11-05T12:27:27.711Z,100206.00
2022-11-05T12:30:05.332Z,100212.17
2022-11-05T12:33:04.391Z,100211.77
2022-11-05T12:35:49.010Z,100215.47
2022-11-05T12:38:35.666Z,100222.71
2022-11-05T12:41:22.776Z,100224.13
2022-11-05T12:44:01.905Z,100230.76
2022-11-05T12:46:43.092Z,100230.79
2022-11-05T12:49:30.926Z,100235.77
2022-11-05T12:52:09.271Z,100234.93
2022-11-05T12:54:51.781Z,100239.61
2022-11-05T12:57:20.110Z,100236.45
2022-11-05T12:59:50.887Z,100239.88
2022-11-05T13:02:29.592Z,100244.08
2022-11-05T13:05:13.752Z,100246.05
2022-11-05T13:08:21.959Z,100239.84
2022-11-05T13:10:57.998Z,100239.77
2022-11-05T13:13:46.938Z,100238.48
2022-11-05T13:16:29.829Z,100230.94
2022-11-05T13:19:02.797Z,100235.79
2022-11-05T13:21:31.134Z,100240.59
2022-11-05T13:24:11.040Z,100239.56
2022-11-05T13:26:47.364Z,100241.41
2022-11-05T13:29:38.332Z,100239.21
2022-11-05T13:32:38.451Z,100237.11
2022-11-05T13:35:15.851Z,100246.03
2022-11-05T13:38:10.441Z,100249.75
2022-11-05T13:41:07.201Z,100250.77
2022-11-05T13:44:13.912Z,100249.89
2022-11-05T13:47:20.891Z,100256.83
2022-11-05T13:49:53.160Z,100263.00
2022-11-05T13:52:43.281Z,100265.00
2022-11-05T13:55:57.751Z,100261.00
2022-11-05T13:58:47.848Z,100268.20
2022-11-05T14:01:17.229Z,100270.67
2022-11-05T14:03:48.066Z,100270.17
2022-11-05T14:06:28.236Z,100278.94
2022-11-05T14:09:03.677Z,100287.13
2022-11-05T14:11:35.860Z,100286.16
2022-11-05T14:14:09.218Z,100280.44
2022-11-05T14:17:09.809Z,100285.30
2022-11-05T14:20:05.248Z,100287.32
2022-11-05T14:22:40.142Z,100292.59
2022-11-05T14:25:21.239Z,100294.58
2022-11-05T14:27:51.878Z,100287.90
2022-11-05T14:30:45.554Z,100286.36
2022-11-05T14:33:24.934Z,100292.96
2022-11-05T14:36:20.449Z,100298.95
2022-11-05T14:39:13.337Z,100301.04
2022-11-05T14:41:53.963Z,100305.54
2022-11-05T14:44:28.763Z,100312.75
2022-11-05T14:53:43.053Z,100323.25
2022-11-05T14:56:42.843Z,100324.71
2022-11-05T14:59:26.943Z,100327.42
2022-11-05T15:02:22.677Z,100325.89
2022-11-05T15:05:37.297Z,100328.92
2022-11-05T15:08:27.062Z,100332.68
2022-11-05T15:11:19.172Z,100335.15
2022-11-05T15:14:39.362Z,100337.77
2022-11-05T15:17:46.707Z,100344.59
2022-11-05T15:20:41.602Z,100346.02
2022-11-05T15:23:25.425Z,100343.48
2022-11-05T15:26:14.563Z,100352.06
2022-11-05T15:28:54.617Z,100354.30
2022-11-05T15:31:48.325Z,100351.38
2022-11-05T15:39:02.304Z,100355.35
2022-11-05T15:41:47.283Z,100359.80
2022-11-05T15:44:29.221Z,100366.67
2022-11-05T15:47:33.527Z,100367.10
2022-11-05T15:53:14.591Z,100372.16
2022-11-05T15:56:49.939Z,100376.37
2022-11-05T16:00:29.902Z,100381.89
2022-11-05T16:03:08.985Z,100383.58
2022-11-05T16:19:41.855Z,100397.18
2022-11-05T16:22:09.809Z,100401.23
2022-11-05T16:24:37.901Z,100401.95
2022-11-05T16:27:06.532Z,100406.48
2022-11-05T16:29:38.241Z,100408.77
2022-11-05T16:32:15.356Z,100413.16
2022-11-05T16:34:48.404Z,100413.94
2022-11-05T16:37:18.343Z,100418.95
2022-11-05T16:39:46.560Z,100423.75
2022-11-05T16:42:23.571Z,100420.85
2022-11-05T16:44:52.424Z,100425.10
2022-11-05T16:47:21.305Z,100428.39
2022-11-05T16:49:49.743Z,100430.45
2022-11-05T16:52:18.225Z,100430.78
2022-11-05T16:54:46.058Z,100433.84
2022-11-05T16:57:34.097Z,100437.02
2022-11-05T17:00:01.987Z,100438.52
2022-11-05T17:02:30.095Z,100444.80
2022-11-05T17:04:58.160Z,100445.46
2022-11-05T17:07:26.349Z,100449.47
2022-11-05T17:09:55.929Z,100455.41
2022-11-05T17:12:23.796Z,100460.41
2022-11-05T17:14:51.637Z,100463.30
2022-11-05T17:17:19.449Z,100466.63
2022-11-05T17:19:47.277Z,100463.02
2022-11-05T17:22:15.257Z,100462.46
2022-11-05T17:24:43.206Z,100465.99
2022-11-05T17:27:11.023Z,100469.71
2022-11-05T17:29:38.857Z,100473.48
2022-11-05T17:32:07.143Z,100473.25
2022-11-05T17:34:35.138Z,100480.85
2022-11-05T17:37:06.052Z,100475.41
2022-11-05T17:39:34.351Z,100480.91
2022-11-05T17:42:02.360Z,100482.17
2022-11-05T17:44:30.282Z,100483.71
2022-11-05T17:46:58.340Z,100486.14
2022-11-05T17:49:26.182Z,100492.23
2022-11-05T17:51:54.009Z,100494.00
2022-11-05T17:54:21.859Z,100492.93
2022-11-05T17:56:49.668Z,100496.86
2022-11-05T17:59:17.834Z,100494.42
2022-11-05T18:01:46.012Z,100493.25
2022-11-05T18:04:14.690Z,100498.70
2022-11-05T18:06:42.974Z,100503.77
2022-11-05T18:09:11.299Z,100505.38
2022-11-05T18:11:40.028Z,100506.71
2022-11-05T18:14:08.215Z,100511.20
2022-11-05T18:16:37.193Z,100508.75
2022-11-05T18:19:05.547Z,100509.80
2022-11-05T18:21:34.220Z,100515.98
2022-11-05T18:24:04.225Z,100513.80
2022-11-05T18:26:32.137Z,100518.88
2022-11-05T18:29:01.416Z,100520.48
2022-11-05T18:31:29.561Z,100519.24
2022-11-05T18:33:59.219Z,100521.13
2022-11-05T18:36:30.102Z,100522.68
2022-11-05T18:38:59.441Z,100522.80
2022-11-05T18:41:27.401Z,100526.63
2022-11-05T18:43:59.945Z,100528.46
2022-11-05T18:46:56.382Z,100530.30
2022-11-05T18:49:17.113Z,100529.08
2022-11-05T18:51:45.002Z,100532.61
2022-11-05T18:54:12.961Z,100532.41
2022-11-05T18:56:45.555Z,100535.60
2022-11-05T18:59:35.888Z,100540.08
2022-11-05T19:02:03.157Z,100545.84
2022-11-05T19:04:31.379Z,100550.80
2022-11-05T19:07:04.492Z,100550.11
2022-11-05T19:09:34.318Z,100557.27
2022-11-05T19:12:02.992Z,100553.39
2022-11-05T19:14:31.350Z,100559.39
2022-11-05T19:17:00.031Z,100562.27
2022-11-05T19:19:28.412Z,100567.27
2022-11-05T19:21:56.339Z,100568.63
2022-11-05T19:24:24.891Z,100572.21
2022-11-05T19:26:52.757Z,100570.11
2022-11-05T19:29:20.621Z,100570.55
2022-11-05T19:31:48.545Z,100573.63
2022-11-05T19:34:16.582Z,100573.22
2022-11-05T19:36:44.869Z,100581.27
2022-11-05T19:39:14.725Z,100582.73
2022-11-05T19:41:42.823Z,100577.55
2022-11-05T19:44:11.281Z,100583.42
2022-11-05T19:46:39.307Z,100581.66
2022-11-05T19:49:07.193Z,100586.91
2022-11-05T19:51:35.441Z,100584.94
2022-11-05T19:54:06.639Z,100586.89
2022-11-05T19:56:36.016Z,100590.51
2022-11-05T19:59:06.506Z,100590.05
2022-11-05T20:01:34.837Z,100593.47
2022-11-05T20:04:03.550Z,100594.61
2022-11-05T20:06:35.747Z,100594.19
2022-11-05T20:09:21.520Z,100596.08
2022-11-05T20:11:53.969Z,100599.50
2022-11-05T20:14:23.124Z,100599.04
2022-11-05T20:16:51.812Z,100600.55
2022-11-05T20:19:20.695Z,100602.54
2022-11-05T20:21:49.108Z,100604.92
2022-11-05T20:24:24.188Z,100608.60
2022-11-05T20:26:56.270Z,100612.33
2022-11-05T20:29:32.190Z,100610.38
2022-11-05T20:32:03.701Z,100606.63
2022-11-05T20:34:32.594Z,100612.88
2022-11-05T20:37:01.254Z,100607.05
2022-11-05T20:39:29.180Z,100613.91
2022-11-05T20:42:00.712Z,100611.40
2022-11-05T20:44:28.874Z,100610.59
2022-11-05T20:46:56.834Z,100613.42
2022-11-05T20:49:25.861Z,100613.00
2022-11-05T20:51:54.492Z,100617.70
2022-11-05T20:54:23.064Z,100621.30
2022-11-05T20:56:51.259Z,100623.08
2022-11-05T20:59:21.650Z,100633.42
2022-11-05T21:01:51.292Z,100636.43
2022-11-05T21:04:19.513Z,100637.16
2022-11-05T21:06:47.360Z,100632.98
2022-11-05T21:09:15.149Z,100626.36
2022-11-05T21:12:01.709Z,100622.75
2022-11-05T21:14:29.652Z,100623.77
2022-11-05T21:16:57.543Z,100621.98
2022-11-05T21:19:25.512Z,100621.97
2022-11-05T21:21:53.494Z,100618.78
2022-11-05T21:24:21.533Z,100624.64
2022-11-05T21:26:50.097Z,100623.83
2022-11-05T21:29:18.700Z,100622.61
2022-11-05T21:31:46.989Z,100626.20
2022-11-05T21:34:15.148Z,100625.64
2022-11-05T21:36:43.193Z,100632.54
2022-11-05T21:39:13.650Z,100628.52
2022-11-05T21:41:42.806Z,100629.80
2022-11-05T21:44:10.991Z,100634.77
2022-11-05T21:46:38.948Z,100632.75
2022-11-05T21:49:06.925Z,100635.75
2022-11-05T21:51:53.631Z,100635.91
2022-11-05T21:54:40.311Z,100636.77
2022-11-05T21:57:34.924Z,100633.93
2022-11-05T22:00:08.929Z,100634.65
2022-11-05T22:02:37.212Z,100635.10
2022-11-05T22:05:06.972Z,100634.11
2022-11-05T22:07:37.832Z,100639.30
2022-11-05T22:10:15.576Z,100634.14
2022-11-05T22:12:45.166Z,100638.20
2022-11-05T22:15:13.747Z,100639.79
2022-11-05T22:17:46.467Z,100640.15
2022-11-05T22:20:16.037Z,100637.48
2022-11-05T22:22:44.452Z,100639.27
2022-11-05T22:25:13.452Z,100636.80
2022-11-05T22:27:42.065Z,100640.20
2022-11-05T22:30:10.464Z,100639.23
2022-11-05T22:32:39.148Z,100641.41
2022-11-05T22:35:07.774Z,100644.14
2022-11-05T22:37:35.572Z,100643.01
2022-11-05T22:40:03.969Z,100644.63
2022-11-05T22:42:31.967Z,100645.70
2022-11-05T22:44:59.933Z,100644.51
2022-11-05T22:47:27.744Z,100647.07
2022-11-05T22:49:55.588Z,100641.61
2022-11-05T22:52:23.551Z,100641.69
2022-11-05T22:54:51.403Z,100644.59
2022-11-05T22:57:19.241Z,100648.48
2022-11-05T22:59:47.494Z,100642.34
2022-11-05T23:02:15.483Z,100647.66
2022-11-05T23:04:43.459Z,100642.37
2022-11-05T23:07:29.999Z,100639.52
2022-11-05T23:10:16.564Z,100636.75
2022-11-05T23:12:44.805Z,100637.52
2022-11-05T23:15:32.694Z,100646.28
2022-11-05T23:18:19.170Z,100651.11
2022-11-05T23:21:05.782Z,100650.73
2022-11-05T23:23:52.153Z,100648.82
2022-11-05T23:26:38.722Z,100651.54
2022-11-05T23:29:06.583Z,100649.88
2022-11-05T23:31:52.913Z,100659.02
2022-11-05T23:34:20.848Z,100659.56
2022-11-05T23:37:07.133Z,100656.23
2022-11-05T23:39:39.784Z,100654.48
2022-11-05T23:42:29.129Z,100657.69
2022-11-05T23:45:15.804Z,100662.71
2022-11-05T23:48:02.252Z,100664.00
2022-11-05T23:50:34.449Z,100669.48
2022-11-05T23:53:05.382Z,100663.09
2022-11-05T23:55:33.313Z,100669.36
2022-11-05T23:58:01.333Z,100664.86
